Time;durP1;ratioP1;P1;durP2;ratioP2;P2;SDS_P1;SDS_P2;PMS_P1;PMS_P2;Temp;Humidity;BMP_temperature;BMP_pressure;BME280_temperature;BME280_humidity;BME280_pressure;Samples;Min_cycle;Max_cycle;Signal;HPM_P1;HPM_P2
2021/11/17 02:28:20;;;;;;;64.60;21.65;;;;;;;5.66;100.00;101989.66;5027225;28;20053;-72
2021/11/17 02:31:08;;;;;;;77.20;24.35;;;;;;;5.67;100.00;101993.16;5015766;28;20065;-72
2021/11/17 02:33:53;;;;;;;60.60;21.40;;;;;;;5.68;100.00;101995.84;5031319;28;20474;-73
2021/11/17 02:36:41;;;;;;;70.10;23.88;;;;;;;5.69;100.00;101999.38;5031324;28;20057;-67
2021/11/17 02:39:32;;;;;;;78.05;25.58;;;;;;;5.73;100.00;102006.47;5027398;28;20161;-67
2021/11/17 02:42:13;;;;;;;71.40;23.33;;;;;;;5.73;100.00;102010.00;5027731;28;20126;-69
2021/11/17 02:44:58;;;;;;;66.50;22.23;;;;;;;5.74;100.00;102008.25;5024759;28;20077;-69
2021/11/17 02:47:47;;;;;;;75.95;24.58;;;;;;;5.73;100.00;102004.69;5029771;28;20123;-69
2021/11/17 02:50:30;;;;;;;69.32;21.73;;;;;;;5.73;100.00;102002.03;5023980;28;20037;-69
2021/11/17 02:53:13;;;;;;;64.88;21.63;;;;;;;5.73;100.00;101994.09;5025571;28;20137;-69
2021/11/17 02:55:59;;;;;;;69.07;22.98;;;;;;;5.72;100.00;101995.00;5024556;28;20068;-69
2021/11/17 02:58:53;;;;;;;59.90;23.65;;;;;;;5.75;100.00;101995.00;5029008;28;20334;-69
2021/11/17 03:01:51;;;;;;;66.38;22.15;;;;;;;5.74;100.00;101993.25;5026897;28;20048;-68
2021/11/17 03:04:59;;;;;;;65.80;23.10;;;;;;;5.75;100.00;101992.34;5027608;28;20066;-68
2021/11/17 03:07:43;;;;;;;64.63;23.40;;;;;;;5.75;100.00;101986.16;5027539;28;20060;-68
2021/11/17 03:10:27;;;;;;;69.82;23.92;;;;;;;5.78;100.00;101981.78;5026208;28;20047;-69
2021/11/17 03:13:08;;;;;;;63.28;23.40;;;;;;;5.77;100.00;101979.13;5021749;28;20064;-69
2021/11/17 03:15:58;;;;;;;71.82;23.67;;;;;;;5.79;100.00;101969.44;5029137;28;20103;-67
2021/11/17 03:18:49;;;;;;;67.15;20.13;;;;;;;5.78;100.00;101968.53;5024231;28;20099;-67
2021/11/17 03:22:00;;;;;;;65.20;24.27;;;;;;;5.78;100.00;101976.47;5027641;28;20049;-69
2021/11/17 03:24:53;;;;;;;72.63;23.70;;;;;;;5.80;100.00;101981.78;5018945;28;20059;-68
2021/11/17 03:27:44;;;;;;;74.82;24.45;;;;;;;5.79;100.00;101969.44;5027583;28;20489;-67
2021/11/17 03:30:38;;;;;;;71.40;23.15;;;;;;;5.80;100.00;101961.47;5030709;28;20070;-67
2021/11/17 03:33:32;;;;;;;78.30;23.17;;;;;;;5.78;100.00;101952.63;5030242;28;20049;-67
2021/11/17 03:36:13;;;;;;;;;;;;;;;5.77;100.00;101956.19;5028061;28;20060;-67
2021/11/17 03:39:20;;;;;;;64.13;21.58;;;;;;;5.73;100.00;101948.19;5027111;28;20556;-67
2021/11/17 03:42:04;;;;;;;69.50;24.05;;;;;;;5.72;100.00;101938.47;5024748;28;20122;-69
2021/11/17 03:45:02;;;;;;;69.97;24.50;;;;;;;5.79;100.00;101935.00;5026569;28;20505;-68
2021/11/17 03:47:45;;;;;;;70.85;24.88;;;;;;;5.76;100.00;101932.34;5025262;28;20153;-73
2021/11/17 03:50:29;;;;;;;76.90;24.98;;;;;;;5.76;100.00;101938.50;5027706;28;20124;-73
2021/11/17 03:53:04;;;;;;;;;;;;;;;5.78;100.00;101952.63;5022450;28;20068;-71
2021/11/17 03:55:48;;;;;;;66.22;24.27;;;;;;;5.77;100.00;101948.25;5027540;28;19932;-74
2021/11/17 03:58:28;;;;;;;64.40;22.88;;;;;;;5.84;100.00;101940.31;5025811;28;20060;-73
2021/11/17 04:01:20;;;;;;;71.45;25.58;;;;;;;5.84;100.00;101938.56;5030545;28;20045;-73
2021/11/17 04:04:07;;;;;;;72.80;26.30;;;;;;;5.86;100.00;101936.81;5028068;28;20516;-74
2021/11/17 04:06:51;;;;;;;76.40;24.30;;;;;;;5.81;100.00;101935.88;5026476;28;20160;-73
2021/11/17 04:09:38;;;;;;;72.85;24.55;;;;;;;5.84;100.00;101935.91;5024673;28;20517;-73
2021/11/17 04:12:21;;;;;;;71.20;25.20;;;;;;;5.80;100.00;101939.41;5028757;28;20087;-74
2021/11/17 04:15:00;;;;;;;69.88;24.00;;;;;;;5.79;100.00;101927.94;5026006;28;20053;-74
2021/11/17 04:17:45;;;;;;;79.78;25.95;;;;;;;5.84;100.00;101940.31;5030603;28;20061;-73
2021/11/17 04:20:28;;;;;;;77.32;26.33;;;;;;;5.84;100.00;101935.91;5021198;28;20438;-68
2021/11/17 04:23:09;;;;;;;80.28;27.17;;;;;;;5.88;100.00;101937.69;5028055;28;20311;-68
2021/11/17 04:26:03;;;;;;;81.60;27.98;;;;;;;5.89;100.00;101938.56;5027717;28;20057;-68
2021/11/17 04:28:44;;;;;;;90.47;29.63;;;;;;;5.90;100.00;101933.28;5025875;28;20577;-68
2021/11/17 04:31:50;;;;;;;80.03;28.77;;;;;;;5.92;100.00;101922.69;5027461;28;20087;-68
2021/11/17 04:34:40;;;;;;;70.68;26.15;;;;;;;5.95;100.00;101925.34;5020377;28;20056;-68
2021/11/17 04:37:40;;;;;;;81.13;26.08;;;;;;;6.00;100.00;101930.72;5029490;28;20140;-68
2021/11/17 04:40:32;;;;;;;91.07;31.23;;;;;;;6.03;100.00;101936.91;5022726;28;20052;-68
2021/11/17 04:43:34;;;;;;;90.18;29.25;;;;;;;6.02;100.00;101932.47;5026330;28;20057;-68
2021/11/17 04:46:15;;;;;;;84.25;28.38;;;;;;;6.04;100.00;101937.78;5027091;28;20063;-68
2021/11/17 04:48:56;;;;;;;98.57;32.00;;;;;;;6.05;100.00;101942.22;5024494;28;20551;-68
2021/11/17 04:51:44;;;;;;;85.22;29.70;;;;;;;6.07;100.00;101945.75;5022139;28;20042;-68
2021/11/17 04:54:29;;;;;;;95.03;29.02;;;;;;;6.07;100.00;101930.72;5021582;28;20053;-69
2021/11/17 04:57:21;;;;;;;99.15;30.48;;;;;;;6.09;100.00;101936.91;5025449;28;20497;-68
2021/11/17 05:00:17;;;;;;;101.07;32.55;;;;;;;6.10;100.00;101938.69;5024788;28;20698;-68
2021/11/17 05:03:00;;;;;;;110.88;31.98;;;;;;;6.12;100.00;101939.59;5019621;28;20477;-68
2021/11/17 05:05:58;;;;;;;88.25;29.48;;;;;;;6.14;100.00;101942.25;5026299;28;20045;-69
2021/11/17 05:08:35;;;;;;;93.47;31.35;;;;;;;6.15;100.00;101947.56;5025029;28;20195;-69
2021/11/17 05:11:15;;;;;;;90.38;28.45;;;;;;;6.17;100.00;101945.78;5021427;28;20045;-69
2021/11/17 05:13:54;;;;;;;87.27;29.83;;;;;;;6.15;100.00;101944.03;5031553;28;20381;-69
2021/11/17 05:16:38;;;;;;;96.45;30.23;;;;;;;6.18;100.00;101933.44;5030021;28;20333;-69
2021/11/17 05:19:13;;;;;;;83.15;26.70;;;;;;;6.21;100.00;101930.78;5022714;28;20511;-67
2021/11/17 05:21:57;;;;;;;85.07;28.05;;;;;;;6.25;100.00;101927.28;5025547;28;20202;-67
2021/11/17 05:24:44;;;;;;;85.18;29.52;;;;;;;6.25;100.00;101927.28;5024111;28;20049;-67
2021/11/17 05:27:38;;;;;;;95.22;31.08;;;;;;;6.31;100.00;101931.69;5024238;28;20527;-67
2021/11/17 05:30:20;;;;;;;88.57;28.80;;;;;;;6.33;100.00;101929.94;5022337;28;20045;-67
2021/11/17 05:33:01;;;;;;;89.53;28.17;;;;;;;6.35;100.00;101934.38;5029108;28;20091;-72
2021/11/17 05:35:45;;;;;;;91.97;29.30;;;;;;;6.42;100.00;101937.03;5028957;28;20147;-68
2021/11/17 05:38:24;;;;;;;88.13;28.42;;;;;;;6.44;100.00;101938.81;5027597;28;20052;-67
2021/11/17 05:41:15;;;;;;;84.57;28.63;;;;;;;6.47;100.00;101941.47;5026066;28;20088;-70
2021/11/17 05:43:54;;;;;;;87.15;28.35;;;;;;;6.49;100.00;101930.88;5024255;28;20073;-69
2021/11/17 05:46:37;;;;;;;81.88;28.38;;;;;;;6.52;100.00;101931.78;5026924;28;20060;-70
2021/11/17 05:49:17;;;;;;;78.18;27.77;;;;;;;6.53;100.00;101943.25;5027708;28;20229;-67
2021/11/17 05:52:02;;;;;;;89.28;29.67;;;;;;;6.55;100.00;101938.81;5026496;28;20126;-69
2021/11/17 05:54:43;;;;;;;86.65;28.23;;;;;;;6.55;100.00;101944.13;5021817;28;20394;-67
2021/11/17 05:57:30;;;;;;;73.55;27.85;;;;;;;6.57;100.00;101946.78;5025580;28;20067;-67
2021/11/17 06:00:14;;;;;;;73.43;27.17;;;;;;;6.63;100.00;101941.50;5025155;28;20158;-67
2021/11/17 06:02:50;;;;;;;74.78;26.27;;;;;;;6.68;100.00;101937.09;5026420;28;20119;-68
2021/11/17 06:05:19;;;;;;;80.32;28.38;;;;;;;6.70;100.00;101938.84;5023578;28;20064;-69
2021/11/17 06:07:46;;;;;;;93.65;30.73;;;;;;;6.73;100.00;101943.28;5029206;28;20080;-66
2021/11/17 06:10:19;;;;;;;82.97;29.83;;;;;;;6.73;100.00;101943.28;5029597;28;20314;-72
2021/11/17 06:12:47;;;;;;;73.05;28.10;;;;;;;6.77;100.00;101944.19;5029582;28;20040;-73
2021/11/17 06:15:17;;;;;;;80.63;30.85;;;;;;;6.77;100.00;101949.47;5031722;28;20432;-68
2021/11/17 06:17:47;;;;;;;93.88;30.17;;;;;;;6.77;100.00;101944.19;5028658;28;20146;-67
2021/11/17 06:20:17;;;;;;;81.30;30.52;;;;;;;6.82;100.00;101937.09;5030540;28;20049;-73
2021/11/17 06:22:48;;;;;;;82.15;28.77;;;;;;;6.83;100.00;101949.50;5026109;28;20087;-72
2021/11/17 06:25:19;;;;;;;85.10;29.15;;;;;;;6.87;100.00;101951.25;5032696;28;20157;-74
2021/11/17 06:27:51;;;;;;;83.20;29.13;;;;;;;6.88;100.00;101945.97;5027111;28;20254;-73
2021/11/17 06:30:23;;;;;;;88.00;31.00;;;;;;;6.92;100.00;101941.53;5034484;28;20463;-73
2021/11/17 06:32:56;;;;;;;93.43;31.33;;;;;;;6.94;100.00;101947.72;5016364;28;20154;-73
2021/11/17 06:35:25;;;;;;;90.73;31.80;;;;;;;6.96;100.00;101953.03;5025872;28;20081;-73
2021/11/17 06:37:55;;;;;;;102.85;30.92;;;;;;;7.01;100.00;101952.16;5029928;28;20297;-73
2021/11/17 06:40:25;;;;;;;88.97;32.22;;;;;;;7.06;100.00;101952.16;5026730;28;20127;-73
2021/11/17 06:42:55;;;;;;;102.13;32.42;;;;;;;7.07;100.00;101954.81;5029734;28;20261;-73
2021/11/17 06:45:25;;;;;;;88.30;31.17;;;;;;;7.12;100.00;101954.81;5024995;28;20045;-68
2021/11/17 06:47:54;;;;;;;76.03;28.45;;;;;;;7.12;100.00;101954.81;5030130;28;20153;-68
2021/11/17 06:50:21;;;;;;;90.93;31.25;;;;;;;7.19;100.00;101953.06;5026973;28;20078;-68
2021/11/17 06:52:49;;;;;;;77.90;28.35;;;;;;;7.15;100.00;101944.22;5027252;28;20249;-68
2021/11/17 06:55:17;;;;;;;79.03;30.50;;;;;;;7.19;100.00;101955.72;5027476;28;20317;-68
2021/11/17 06:57:47;;;;;;;86.88;31.75;;;;;;;7.22;100.00;101958.34;5028740;28;20053;-68
2021/11/17 07:00:19;;;;;;;90.55;30.60;;;;;;;7.29;100.00;101963.66;5027291;28;20358;-68
2021/11/17 07:02:47;;;;;;;85.43;31.00;;;;;;;7.31;100.00;101962.78;5024812;28;20447;-68
2021/11/17 07:05:16;;;;;;;89.47;29.65;;;;;;;7.29;100.00;101966.31;5029573;28;20090;-68
2021/11/17 07:07:44;;;;;;;98.55;34.28;;;;;;;7.33;100.00;101963.66;5028845;28;20833;-68
2021/11/17 07:10:14;;;;;;;85.50;31.13;;;;;;;7.36;100.00;101975.16;5030329;28;20056;-67
2021/11/17 07:12:42;;;;;;;82.72;30.08;;;;;;;7.37;100.00;101984.00;5024624;28;20516;-67
2021/11/17 07:15:14;;;;;;;88.82;30.27;;;;;;;7.41;100.00;101988.44;5032078;28;20084;-67
2021/11/17 07:17:42;;;;;;;90.88;31.63;;;;;;;7.46;100.00;101984.03;5025700;28;20084;-72
2021/11/17 07:20:12;;;;;;;87.72;29.63;;;;;;;7.46;100.00;101987.53;5030958;28;20076;-68
2021/11/17 07:22:41;;;;;;;89.15;30.55;;;;;;;7.48;100.00;101988.44;5027851;28;20065;-68
2021/11/17 07:25:13;;;;;;;98.35;32.75;;;;;;;7.48;100.00;101996.41;5021888;28;20081;-68
2021/11/17 07:27:40;;;;;;;90.20;30.25;;;;;;;7.51;100.00;102000.84;5025041;28;20084;-68
2021/11/17 07:30:10;;;;;;;106.32;33.40;;;;;;;7.53;100.00;101990.22;5022808;28;20155;-68
2021/11/17 07:32:40;;;;;;;90.88;32.33;;;;;;;7.52;100.00;101991.97;5033593;28;20072;-68
2021/11/17 07:35:10;;;;;;;93.40;31.42;;;;;;;7.55;100.00;101996.41;5030701;28;20108;-69
2021/11/17 07:37:39;;;;;;;84.40;30.67;;;;;;;7.58;100.00;102004.38;5023719;28;20536;-69
2021/11/17 07:40:09;;;;;;;82.07;29.83;;;;;;;7.56;100.00;101998.16;5026235;28;20128;-68
2021/11/17 07:42:37;;;;;;;82.25;30.60;;;;;;;7.59;100.00;102003.47;5024139;28;20818;-68
2021/11/17 07:45:07;;;;;;;84.68;27.42;;;;;;;7.61;100.00;102001.69;5027153;28;20085;-69
2021/11/17 07:47:35;;;;;;;95.53;30.25;;;;;;;7.61;100.00;102007.00;5027046;28;20065;-68
2021/11/17 07:50:06;;;;;;;93.30;29.20;;;;;;;7.65;100.00;102004.34;5029138;28;20100;-68
2021/11/17 07:52:35;;;;;;;84.03;29.55;;;;;;;7.72;100.00;102007.00;5026462;28;20049;-69
2021/11/17 07:55:04;;;;;;;84.03;29.95;;;;;;;7.69;100.00;102013.19;5023503;28;20573;-70
2021/11/17 07:57:32;;;;;;;92.68;30.08;;;;;;;7.75;100.00;102014.97;5023554;28;20060;-69
2021/11/17 08:00:00;;;;;;;88.53;29.23;;;;;;;7.78;100.00;102017.59;5029940;28;20060;-68
2021/11/17 08:02:28;;;;;;;81.80;30.75;;;;;;;7.81;100.00;102026.44;5029098;28;20056;-73
2021/11/17 08:04:56;;;;;;;80.40;29.38;;;;;;;7.86;100.00;102029.09;5022657;28;20851;-73
2021/11/17 08:07:25;;;;;;;90.30;29.30;;;;;;;7.89;100.00;102030.88;5028345;28;20077;-73
2021/11/17 08:09:54;;;;;;;85.65;28.70;;;;;;;7.91;100.00;102027.31;5027878;28;20115;-73
2021/11/17 08:12:23;;;;;;;95.40;32.22;;;;;;;7.93;100.00;102036.19;5023827;28;20072;-74
2021/11/17 08:14:51;;;;;;;90.80;31.13;;;;;;;7.95;100.00;102036.19;5028594;28;20079;-74
2021/11/17 08:17:19;;;;;;;89.90;29.13;;;;;;;7.97;100.00;102032.63;5024875;28;20041;-72
2021/11/17 08:19:48;;;;;;;86.93;31.85;;;;;;;7.98;100.00;102034.38;5030310;28;20078;-72
2021/11/17 08:22:16;;;;;;;87.45;29.02;;;;;;;8.01;100.00;102044.16;5022757;28;20041;-73
2021/11/17 08:24:46;;;;;;;93.82;30.08;;;;;;;8.04;100.00;102045.03;5027207;28;20132;-73
2021/11/17 08:27:18;;;;;;;88.88;30.42;;;;;;;8.07;100.00;102037.91;5028486;28;20052;-73
2021/11/17 08:29:47;;;;;;;82.68;31.05;;;;;;;8.06;100.00;102045.03;5026763;28;20060;-73
2021/11/17 08:32:16;;;;;;;92.95;31.20;;;;;;;8.07;100.00;102046.81;5026901;28;20060;-73
2021/11/17 08:34:44;;;;;;;92.55;33.38;;;;;;;8.10;100.00;102053.88;5024458;28;20406;-73
2021/11/17 08:37:12;;;;;;;79.50;29.08;;;;;;;8.12;100.00;102052.09;5028133;28;20045;-73
2021/11/17 08:39:41;;;;;;;84.57;30.05;;;;;;;8.14;100.00;102047.63;5021930;28;20080;-73
2021/11/17 08:42:11;;;;;;;81.57;28.67;;;;;;;8.18;100.00;102054.75;5027356;28;20055;-74
2021/11/17 08:44:40;;;;;;;86.38;30.85;;;;;;;8.25;100.00;102047.63;5027160;28;20138;-71
2021/11/17 08:47:09;;;;;;;84.80;29.88;;;;;;;8.24;100.00;102052.06;5028765;28;20510;-73
2021/11/17 08:49:38;;;;;;;88.82;30.10;;;;;;;8.27;100.00;102057.34;5025389;28;20493;-74
2021/11/17 08:52:08;;;;;;;73.20;28.30;;;;;;;8.31;100.00;102068.88;5023467;28;20045;-74
2021/11/17 08:54:36;;;;;;;76.82;27.10;;;;;;;8.39;100.00;102064.41;5025769;28;20357;-73
2021/11/17 08:57:05;;;;;;;77.15;26.33;;;;;;;8.44;100.00;102067.97;5021640;28;20091;-73
2021/11/17 08:59:34;;;;;;;73.93;28.02;;;;;;;8.46;100.00;102063.53;5028623;28;20048;-74
2021/11/17 09:02:04;;;;;;;68.85;26.00;;;;;;;8.50;100.00;102069.75;5024380;28;20184;-73
2021/11/17 09:04:32;;;;;;;67.70;27.77;;;;;;;8.53;100.00;102073.28;5028539;28;20084;-73
2021/11/17 09:07:00;;;;;;;66.88;25.77;;;;;;;8.60;100.00;102075.03;5026313;28;20125;-73
2021/11/17 09:09:28;;;;;;;67.75;24.13;;;;;;;8.68;100.00;102082.06;5020827;28;20049;-73
2021/11/17 09:11:56;;;;;;;62.80;26.13;;;;;;;8.77;100.00;102082.94;5008678;28;20052;-75
2021/11/17 09:14:25;;;;;;;59.45;22.70;;;;;;;8.80;100.00;102076.69;5028660;28;20057;-74
2021/11/17 09:16:54;;;;;;;64.75;24.58;;;;;;;8.86;100.00;102086.44;5010398;28;20075;-74
2021/11/17 09:19:24;;;;;;;68.00;23.38;;;;;;;8.90;100.00;102085.50;5028450;28;20041;-74
2021/11/17 09:21:53;;;;;;;66.13;23.38;;;;;;;8.97;100.00;102084.59;5024454;28;20037;-68
2021/11/17 09:24:23;;;;;;;68.28;25.17;;;;;;;9.06;100.00;102083.63;5024391;28;20088;-69
2021/11/17 09:26:53;;;;;;;60.72;23.00;;;;;;;9.13;100.00;102093.38;5022348;28;20098;-68
2021/11/17 09:29:25;;;;;;;54.10;21.55;;;;;;;9.25;100.00;102095.09;5027994;28;20572;-68
2021/11/17 09:31:55;;;;;;;57.55;22.25;;;;;;;9.34;100.00;102103.00;5021744;28;20460;-68
2021/11/17 09:34:23;;;;;;;58.72;22.00;;;;;;;9.37;100.00;102100.31;5026103;28;20053;-68
2021/11/17 09:36:51;;;;;;;52.42;20.70;;;;;;;9.44;100.00;102090.50;5026808;28;20099;-69
2021/11/17 09:39:19;;;;;;;59.60;22.30;;;;;;;9.52;100.00;102104.66;5028173;28;20061;-68
2021/11/17 09:41:50;;;;;;;50.95;18.92;;;;;;;9.59;100.00;102090.41;5025873;28;20063;-68
2021/11/17 09:44:25;;;;;;;43.40;18.27;;;;;;;9.68;100.00;102087.63;5026310;28;20064;-69
2021/11/17 09:46:56;;;;;;;48.20;18.05;;;;;;;9.72;100.00;102099.16;5029317;28;20049;-68
2021/11/17 09:49:44;;;;;;;45.53;16.48;;;;;;;9.76;100.00;102102.72;5027609;28;20491;-69
2021/11/17 09:52:18;;;;;;;42.22;15.25;;;;;;;9.75;100.00;102111.59;5026888;28;20532;-68
2021/11/17 09:54:51;;;;;;;34.90;14.30;;;;;;;9.82;100.00;102110.63;5009636;28;20049;-68
2021/11/17 09:57:23;;;;;;;42.78;15.60;;;;;;;9.89;100.00;102112.34;5028428;28;20084;-70
2021/11/17 09:59:54;;;;;;;30.77;12.18;;;;;;;9.91;100.00;102119.44;5030257;28;20065;-68
2021/11/17 10:02:27;;;;;;;17.38;7.45;;;;;;;10.05;100.00;102129.09;5031432;28;20085;-68
2021/11/17 10:05:01;;;;;;;14.15;6.28;;;;;;;10.15;100.00;102121.88;5031648;28;20049;-68
2021/11/17 10:13:31;;;;;;;20.98;5.18;;;;;;;10.32;100.00;102127.06;4939993;28;20511;-74
2021/11/17 10:16:00;;;;;;;17.25;5.53;;;;;;;10.34;100.00;102126.16;5027093;28;20145;-73
2021/11/17 10:18:39;;;;;;;10.70;4.07;;;;;;;10.25;100.00;102127.13;5028522;28;20781;-73
2021/11/17 10:21:16;;;;;;;13.27;3.85;;;;;;;10.24;100.00;102121.81;5030582;28;20630;-73
2021/11/17 10:24:04;;;;;;;12.95;4.25;;;;;;;10.34;100.00;102135.97;5027245;28;20457;-73
2021/11/17 10:26:45;;;;;;;15.35;4.97;;;;;;;10.39;100.00;102129.66;5008155;28;20152;-72
2021/11/17 10:29:25;;;;;;;17.98;4.55;;;;;;;10.44;100.00;102135.84;5026851;28;20267;-72
2021/11/17 10:31:55;;;;;;;8.63;3.97;;;;;;;10.70;100.00;102133.78;5029149;28;20448;-72
2021/11/17 10:34:31;;;;;;;11.73;4.28;;;;;;;10.90;100.00;102138.88;5028719;28;20059;-72
2021/11/17 10:37:04;;;;;;;18.70;5.38;;;;;;;10.93;100.00;102145.06;5023567;28;20386;-72
2021/11/17 10:39:43;;;;;;;10.80;4.13;;;;;;;10.83;100.00;102141.63;5028534;28;20059;-71
2021/11/17 10:42:14;;;;;;;19.15;4.10;;;;;;;10.76;100.00;102152.38;5026491;28;20047;-71
2021/11/17 10:44:48;;;;;;;13.00;3.55;;;;;;;10.71;99.48;102148.88;5031848;28;20044;-70
2021/11/17 10:47:23;;;;;;;17.30;4.03;;;;;;;10.81;97.96;102162.13;5026454;28;20498;-70
2021/11/17 10:49:56;;;;;;;15.35;4.47;;;;;;;10.87;98.45;102153.16;5027552;28;20500;-70
2021/11/17 10:52:28;;;;;;;12.45;3.47;;;;;;;10.92;96.35;102158.44;5022039;28;20168;-70
2021/11/17 10:54:59;;;;;;;16.38;4.35;;;;;;;10.99;93.97;102170.81;5025389;28;20508;-66
2021/11/17 10:57:30;;;;;;;11.25;3.63;;;;;;;11.02;93.40;102157.41;5031551;28;20064;-67
2021/11/17 10:59:59;;;;;;;15.63;3.40;;;;;;;11.05;92.65;102153.81;5025004;28;20501;-66
2021/11/17 11:02:30;;;;;;;9.13;3.30;;;;;;;11.14;91.94;102165.25;5028634;28;20723;-66
2021/11/17 11:05:04;;;;;;;17.00;3.83;;;;;;;11.18;88.88;102171.44;5028233;28;20041;-66
2021/11/17 11:07:37;;;;;;;15.15;3.92;;;;;;;11.18;86.00;102166.97;5030149;28;20061;-66
2021/11/17 11:10:08;;;;;;;20.35;4.20;;;;;;;11.27;88.14;102162.41;5011525;28;20059;-66
2021/11/17 11:12:37;;;;;;;15.85;3.42;;;;;;;11.28;86.97;102164.19;5031256;28;20516;-66
2021/11/17 11:15:09;;;;;;;14.35;3.17;;;;;;;11.20;87.17;102161.59;5026897;28;20347;-66
2021/11/17 11:17:42;;;;;;;14.43;3.42;;;;;;;11.15;86.92;102164.38;5030393;28;20053;-66
2021/11/17 11:20:38;;;;;;;15.45;3.30;;;;;;;11.10;86.18;102162.63;5030261;28;20657;-66
2021/11/17 11:23:20;;;;;;;17.52;3.95;;;;;;;11.05;85.21;102165.41;5026924;28;20180;-66
2021/11/17 11:26:02;;;;;;;14.27;3.30;;;;;;;10.89;84.00;102164.69;5029434;28;20153;-67
2021/11/17 11:28:34;;;;;;;14.60;3.42;;;;;;;10.93;86.55;102158.41;5026571;28;20045;-68
2021/11/17 11:31:36;;;;;;;13.00;3.88;;;;;;;10.84;88.32;102162.09;5030030;28;20345;-68
2021/11/17 11:34:33;;;;;;;14.43;4.45;;;;;;;10.76;90.99;102158.63;5024418;28;20448;-68
2021/11/17 11:37:05;;;;;;;14.18;3.85;;;;;;;10.73;91.25;102163.13;5026453;28;20115;-68
2021/11/17 11:39:48;;;;;;;19.08;4.45;;;;;;;10.84;93.72;102164.75;5025459;28;20122;-68
2021/11/17 11:42:57;;;;;;;14.77;4.18;;;;;;;10.95;93.21;102163.75;5029776;28;20059;-66
2021/11/17 11:45:41;;;;;;;15.48;3.92;;;;;;;10.96;92.88;102170.84;5026712;28;20861;-68
2021/11/17 11:48:12;;;;;;;13.77;4.28;;;;;;;10.99;93.38;102170.81;5024607;28;20040;-68
2021/11/17 11:50:58;;;;;;;16.10;4.07;;;;;;;10.98;91.70;102169.94;5024620;28;20128;-67
2021/11/17 11:54:06;;;;;;;10.15;3.95;;;;;;;11.11;92.68;102175.97;5022706;28;20080;-67
2021/11/17 11:56:45;;;;;;;10.82;3.65;;;;;;;11.01;91.45;102177.00;5022808;28;20153;-73
2021/11/17 11:59:16;;;;;;;14.15;3.97;;;;;;;11.11;90.69;102167.09;5027588;28;20084;-73
2021/11/17 12:01:44;;;;;;;13.15;5.32;;;;;;;10.98;90.88;102174.38;5023043;28;20470;-73
2021/11/17 12:04:17;;;;;;;12.77;4.22;;;;;;;10.89;91.39;102182.50;5027425;28;20504;-73
2021/11/17 12:06:50;;;;;;;15.60;4.50;;;;;;;10.83;90.28;102180.81;5020623;28;20200;-72
2021/11/17 12:09:28;;;;;;;13.75;4.13;;;;;;;10.91;91.17;102186.03;5027684;28;20127;-75
2021/11/17 12:11:58;;;;;;;11.50;3.85;;;;;;;10.82;91.09;102195.91;5019685;28;20125;-74
2021/11/17 12:14:43;;;;;;;11.73;4.35;;;;;;;10.77;89.33;102192.41;5022407;28;20092;-74
2021/11/17 12:17:12;;;;;;;7.85;3.63;;;;;;;10.83;90.01;102194.16;5026671;28;20057;-74
2021/11/17 12:19:46;;;;;;;15.75;4.32;;;;;;;11.09;91.09;102187.59;5027260;28;20067;-74
2021/11/17 12:22:16;;;;;;;12.23;4.43;;;;;;;10.95;88.87;102203.81;5027534;28;20049;-73
2021/11/17 12:24:49;;;;;;;9.60;3.90;;;;;;;10.99;89.66;102205.53;5023502;28;20195;-74
2021/11/17 12:27:19;;;;;;;13.30;4.35;;;;;;;10.90;90.13;102206.53;5023278;28;20063;-74
2021/11/17 12:29:53;;;;;;;19.95;4.70;;;;;;;10.84;90.37;102211.91;5026757;28;20053;-74
2021/11/17 12:32:27;;;;;;;13.07;3.58;;;;;;;10.80;90.55;102211.06;5024215;28;20095;-74
2021/11/17 12:35:01;;;;;;;18.10;4.00;;;;;;;10.87;89.63;102206.56;5024745;28;20053;-74
2021/11/17 12:37:32;;;;;;;17.20;4.03;;;;;;;10.84;90.25;102210.16;5022465;28;20223;-73
2021/11/17 12:40:06;;;;;;;18.95;4.47;;;;;;;10.97;89.18;102208.22;5023620;28;20140;-74
2021/11/17 12:42:39;;;;;;;20.52;4.47;;;;;;;10.94;87.76;102212.72;5020737;28;20036;-74
2021/11/17 12:45:20;;;;;;;10.23;3.50;;;;;;;11.05;87.88;102209.91;5026922;28;20060;-74
2021/11/17 12:47:51;;;;;;;17.17;4.43;;;;;;;10.87;87.30;102219.91;5021112;28;20586;-68
2021/11/17 12:50:24;;;;;;;20.25;4.55;;;;;;;10.64;88.06;102212.13;5024475;28;20055;-69
2021/11/17 12:52:56;;;;;;;17.10;3.90;;;;;;;10.53;88.86;102211.38;5021899;28;20071;-68
2021/11/17 12:55:30;;;;;;;17.65;3.72;;;;;;;10.59;89.82;102214.88;5027269;28;20057;-68
2021/11/17 12:58:04;;;;;;;21.60;4.50;;;;;;;10.52;90.05;102212.25;5024389;28;20057;-69
2021/11/17 13:00:40;;;;;;;18.02;3.83;;;;;;;10.43;89.22;102213.25;5026290;28;20139;-68
2021/11/17 13:03:10;;;;;;;12.90;3.38;;;;;;;10.49;89.29;102220.28;5024161;28;20067;-68
2021/11/17 13:05:42;;;;;;;15.23;3.50;;;;;;;10.41;89.16;102234.59;5025431;28;20811;-68
2021/11/17 13:08:12;;;;;;;18.23;4.78;;;;;;;10.37;89.83;102223.97;5025638;28;20055;-68
2021/11/17 13:10:47;;;;;;;19.85;5.40;;;;;;;10.37;90.36;102231.97;5019356;28;20052;-68
2021/11/17 13:13:17;;;;;;;16.77;3.70;;;;;;;10.34;89.11;102224.88;5023157;28;20148;-68
2021/11/17 13:15:59;;;;;;;14.63;3.75;;;;;;;10.38;89.61;102212.41;5027173;28;20131;-68
2021/11/17 13:18:31;;;;;;;14.90;3.75;;;;;;;10.35;89.58;102231.09;5026914;28;20378;-69
2021/11/17 13:21:31;;;;;;;16.33;3.65;;;;;;;10.32;89.48;102241.78;5028643;28;20092;-68
2021/11/17 13:24:20;;;;;;;13.95;3.97;;;;;;;10.34;89.74;102242.69;5031664;28;20052;-68
2021/11/17 13:26:52;;;;;;;13.57;3.63;;;;;;;10.20;89.92;102249.00;5027864;28;20061;-68
2021/11/17 13:29:28;;;;;;;17.35;3.40;;;;;;;10.17;89.72;102250.81;5031149;28;20045;-68
2021/11/17 13:32:19;;;;;;;19.65;3.75;;;;;;;10.12;89.81;102237.50;5028189;28;20049;-69
2021/11/17 13:34:49;;;;;;;16.90;3.28;;;;;;;10.05;89.82;102233.97;5027151;28;20521;-70
2021/11/17 13:37:21;;;;;;;17.92;4.03;;;;;;;9.99;90.49;102227.81;5027424;28;20226;-69
2021/11/17 13:39:54;;;;;;;15.30;4.00;;;;;;;9.91;90.47;102227.88;5029783;28;20056;-69
2021/11/17 13:42:24;;;;;;;15.65;3.13;;;;;;;9.93;90.64;102242.09;5032740;28;20143;-68
2021/11/17 13:44:53;;;;;;;14.70;3.45;;;;;;;9.94;89.21;102233.16;5027376;28;20589;-69
2021/11/17 13:47:24;;;;;;;11.50;4.05;;;;;;;9.99;88.07;102227.81;5031833;28;20053;-68
2021/11/17 13:49:55;;;;;;;13.20;3.22;;;;;;;10.03;88.46;102240.25;5028850;28;20068;-68
2021/11/17 13:52:25;;;;;;;13.23;3.50;;;;;;;10.07;86.29;102240.19;5023726;28;20057;-69
2021/11/17 13:54:54;;;;;;;11.60;3.83;;;;;;;10.15;86.22;102248.16;5028943;28;20493;-69
2021/11/17 13:57:24;;;;;;;14.85;3.70;;;;;;;10.19;86.51;102249.00;5027590;28;20520;-69
2021/11/17 13:59:52;;;;;;;14.57;3.08;;;;;;;10.17;86.31;102242.78;5030581;28;20430;-70
2021/11/17 14:02:20;;;;;;;15.60;2.85;;;;;;;10.19;84.95;102244.53;5028847;28;20056;-70
2021/11/17 14:04:50;;;;;;;13.07;3.00;;;;;;;10.21;84.92;102247.19;5033859;28;20251;-69
2021/11/17 14:07:20;;;;;;;18.52;3.47;;;;;;;10.21;85.73;102242.75;5029372;28;20044;-69
2021/11/17 14:09:49;;;;;;;17.83;2.88;;;;;;;10.16;85.96;102259.69;5026967;28;20358;-69
2021/11/17 14:12:17;;;;;;;18.23;4.05;;;;;;;10.16;87.17;102265.03;5025261;28;20061;-69
2021/11/17 14:14:45;;;;;;;18.63;3.65;;;;;;;10.10;87.74;102258.84;5033675;28;20063;-69
2021/11/17 14:17:13;;;;;;;12.95;3.35;;;;;;;10.05;87.74;102268.66;5031070;28;20501;-69
2021/11/17 14:19:42;;;;;;;18.50;3.67;;;;;;;9.98;88.17;102271.38;5028500;28;20049;-69
2021/11/17 14:22:12;;;;;;;12.65;3.08;;;;;;;10.03;88.16;102275.78;5027055;28;20135;-69
2021/11/17 14:24:39;;;;;;;17.27;4.43;;;;;;;10.05;88.71;102276.66;5031386;28;20049;-68
2021/11/17 14:27:10;;;;;;;20.05;4.05;;;;;;;10.01;88.95;102272.25;5027898;28;20175;-75